Puntzi Mountain, Canada
Current Conditions -  °F | °C
As of 8:00 AM on Thursday 30 Oct 2014 (Local Time) from CYWL Reporting Station
Broken Clouds Broken Clouds  
Wind Chill: 33°   Ceiling: 10000
Heat Index: 43°   Visibility: 15mi
Dew Point: 36°   Wind: 24mph
Humidity: 76%   Direction: 110°ESE
Pressure: 29.9"   Gusts: 36mph
Location:  52.12°N, 124.13°W
Report Text: CYWL 301500Z 11021G31KT 15SM FEW040 BKN100 BKN230 06/02 A2990 RMK SC1AC4CI2 SLP147
Loading
Personal Weather Stations






























Interactive Weather Map New forecast layout! Learn more

10-Day Weather Forecast

Advertisements
Track Severe Weather on mobile